Time;durP1;ratioP1;P1;durP2;ratioP2;P2;SDS_P1;SDS_P2;PMS_P1;PMS_P2;Temp;Humidity;BMP_temperature;BMP_pressure;BME280_temperature;BME280_humidity;BME280_pressure;Samples;Min_cycle;Max_cycle;Signal;HPM_P1;HPM_P2
2021/12/26 00:01:46;;;;;;;11.10;4.37;;;;;;;-0.08;77.25;100282.37;125314;1102;104290;-80
2021/12/26 00:04:16;;;;;;;10.50;4.87;;;;;;;-0.07;77.34;100279.91;125211;1102;104207;-81
2021/12/26 00:06:45;;;;;;;9.37;4.70;;;;;;;-0.10;77.11;100284.84;125291;1102;104293;-80
2021/12/26 00:09:14;;;;;;;11.27;4.90;;;;;;;-0.10;77.26;100289.11;125235;1102;104136;-80
2021/12/26 00:11:43;;;;;;;17.13;8.60;;;;;;;-0.08;77.27;100293.61;125172;1102;104162;-80
2021/12/26 00:14:15;;;;;;;15.07;6.40;;;;;;;-0.07;77.04;100292.80;125318;1102;104305;-80
2021/12/26 00:16:44;;;;;;;13.23;6.53;;;;;;;-0.06;77.12;100297.19;125045;1102;107742;-80
2021/12/26 00:19:15;;;;;;;13.33;5.50;;;;;;;-0.06;77.63;100294.61;125120;1102;104226;-80
2021/12/26 00:21:45;;;;;;;12.13;4.73;;;;;;;-0.06;77.93;100302.34;125058;1102;104717;-80
2021/12/26 00:24:13;;;;;;;11.70;4.37;;;;;;;-0.09;78.14;100291.80;125044;1102;104296;-80
2021/12/26 00:26:42;;;;;;;7.70;3.40;;;;;;;-0.12;77.20;100301.89;125217;1102;104123;-79
2021/12/26 00:29:12;;;;;;;6.60;3.67;;;;;;;-0.15;77.14;100300.77;125182;1102;104229;-80
2021/12/26 00:31:43;;;;;;;7.10;3.43;;;;;;;-0.16;77.69;100309.28;125283;1102;104232;-81
2021/12/26 00:34:11;;;;;;;6.80;3.40;;;;;;;-0.18;77.59;100311.74;125205;1102;104325;-80
2021/12/26 00:36:43;;;;;;;9.00;3.03;;;;;;;-0.19;77.57;100320.25;125250;1102;104239;-80
2021/12/26 00:39:15;;;;;;;5.53;3.03;;;;;;;-0.17;77.64;100323.88;125259;1102;104169;-80
2021/12/26 00:41:45;;;;;;;;;;;;;;;-0.20;77.34;100328.80;125279;1102;104190;-80
2021/12/26 00:44:13;;;;;;;5.10;3.37;;;;;;;-0.22;77.95;100326.09;125031;1103;104704;-80
2021/12/26 00:46:42;;;;;;;7.87;2.90;;;;;;;-0.22;77.72;100330.34;125099;1102;104185;-80
2021/12/26 00:49:12;;;;;;;6.67;3.50;;;;;;;-0.22;77.33;100335.49;125319;1102;104162;-80
2021/12/26 00:51:41;;;;;;;11.17;3.60;;;;;;;-0.26;77.30;100333.48;125351;1102;104156;-80
2021/12/26 00:54:12;;;;;;;6.20;3.27;;;;;;;-0.29;77.10;100334.14;125229;1102;104172;-80
2021/12/26 00:56:42;;;;;;;10.47;4.43;;;;;;;-0.33;77.53;100320.89;125204;1102;104158;-80
2021/12/26 00:59:11;;;;;;;8.45;3.90;;;;;;;-0.37;78.03;100323.24;125229;1102;105288;-79
2021/12/26 01:01:40;;;;;;;7.40;3.73;;;;;;;-0.39;77.51;100322.23;125149;1103;102748;-80
2021/12/26 01:04:11;;;;;;;8.27;4.00;;;;;;;-0.40;77.73;100315.27;125192;1102;104280;-79
2021/12/26 01:06:49;;;;;;;10.33;4.73;;;;;;;-0.38;77.70;100312.81;125231;1102;104283;-79
2021/12/26 01:09:23;;;;;;;11.23;4.47;;;;;;;-0.35;76.99;100312.16;125003;1102;104345;-79
2021/12/26 01:11:55;;;;;;;;;;;;;;;-0.35;77.87;100318.20;125262;1102;104261;-80
2021/12/26 01:14:32;;;;;;;7.40;3.80;;;;;;;-0.37;78.08;100322.36;125177;1102;104159;-80
2021/12/26 01:17:07;;;;;;;10.80;4.47;;;;;;;-0.39;77.93;100323.89;125137;1102;104293;-80
2021/12/26 01:19:44;;;;;;;7.80;4.00;;;;;;;-0.45;77.97;100321.77;125164;1102;104150;-80
2021/12/26 01:22:15;;;;;;;8.20;3.80;;;;;;;-0.49;77.54;100304.26;125257;1102;104163;-79
2021/12/26 01:24:48;;;;;;;8.40;4.37;;;;;;;-0.48;77.90;100311.22;125020;1102;104159;-80
2021/12/26 01:27:17;;;;;;;8.50;3.77;;;;;;;-0.44;77.39;100315.80;125003;1102;104284;-80
2021/12/26 01:29:46;;;;;;;8.37;3.73;;;;;;;-0.44;77.84;100315.80;125200;1102;104421;-79
2021/12/26 01:32:14;;;;;;;7.33;3.33;;;;;;;-0.43;77.03;100322.77;125049;1102;104210;-79
2021/12/26 01:34:55;;;;;;;8.30;3.50;;;;;;;-0.46;77.70;100322.53;125213;1102;104204;-79
2021/12/26 01:37:38;;;;;;;6.13;3.13;;;;;;;-0.40;78.07;100315.27;125026;1102;104217;-79
2021/12/26 01:40:25;;;;;;;5.87;2.97;;;;;;;-0.38;77.61;100308.55;125255;1102;104165;-78
2021/12/26 01:43:06;;;;;;;7.03;3.30;;;;;;;-0.41;77.93;100307.42;125246;1102;104229;-80
2021/12/26 01:45:59;;;;;;;7.63;3.50;;;;;;;-0.48;77.81;100315.45;125178;1102;104236;-80
2021/12/26 01:48:28;;;;;;;5.93;3.20;;;;;;;-0.52;77.88;100326.33;124959;1103;105772;-81
2021/12/26 01:50:56;;;;;;;7.73;3.00;;;;;;;-0.57;77.37;100331.13;125055;1102;104332;-79
2021/12/26 01:53:36;;;;;;;5.80;3.30;;;;;;;-0.61;77.44;100340.31;125208;1102;104705;-79
2021/12/26 01:56:12;;;;;;;7.07;3.20;;;;;;;-0.62;77.46;100347.93;125064;1102;104181;-79
2021/12/26 01:58:43;;;;;;;6.50;3.10;;;;;;;-0.69;77.24;100348.22;125050;1102;104155;-80
2021/12/26 02:01:23;;;;;;;4.67;3.10;;;;;;;-0.76;78.38;100363.20;125195;1102;104210;-79
2021/12/26 02:03:53;;;;;;;6.90;3.13;;;;;;;-0.79;77.71;100364.65;125077;1102;104238;-79
2021/12/26 02:06:22;;;;;;;5.80;3.03;;;;;;;-0.80;77.61;100376.61;125163;1102;103977;-79
2021/12/26 02:08:53;;;;;;;6.57;3.30;;;;;;;-0.80;77.87;100373.15;125017;1102;104059;-79
2021/12/26 02:11:23;;;;;;;6.50;3.27;;;;;;;-0.80;78.06;100373.15;125198;1102;101897;-79
2021/12/26 02:13:53;;;;;;;5.20;3.27;;;;;;;-0.79;77.90;100370.69;125097;1102;103941;-79
2021/12/26 02:16:27;;;;;;;6.20;3.07;;;;;;;-0.76;77.61;100370.05;125060;1102;103964;-79
2021/12/26 02:18:56;;;;;;;4.53;3.10;;;;;;;-0.72;77.89;100364.33;125014;1102;103929;-79
2021/12/26 02:21:41;;;;;;;3.33;2.60;;;;;;;-0.69;77.90;100369.72;125146;1102;104076;-79
2021/12/26 02:24:16;;;;;;;6.30;2.90;;;;;;;-0.70;78.02;100375.68;124984;1102;103935;-79
2021/12/26 02:29:34;;;;;;;7.43;3.30;;;;;;;-0.74;77.36;100382.25;125130;1101;111994;-79
2021/12/26 02:32:07;;;;;;;6.75;3.40;;;;;;;-0.70;78.26;100372.18;125139;1102;103960;-79
2021/12/26 02:34:38;;;;;;;6.80;2.97;;;;;;;-0.67;78.20;100375.92;125258;1102;104109;-80
2021/12/26 02:37:07;;;;;;;4.67;2.93;;;;;;;-0.63;77.49;100362.47;125218;1102;103985;-79
2021/12/26 02:39:37;;;;;;;5.70;3.10;;;;;;;-0.58;77.65;100363.75;125148;1102;104034;-80
2021/12/26 02:42:08;;;;;;;7.83;2.93;;;;;;;-0.53;77.66;100373.50;125168;1102;103948;-79
2021/12/26 02:44:38;;;;;;;5.77;2.77;;;;;;;-0.52;77.92;100375.31;125113;1102;104060;-80
2021/12/26 02:47:08;;;;;;;6.33;2.90;;;;;;;-0.54;78.06;100388.08;125141;1102;103938;-79
2021/12/26 02:49:38;;;;;;;9.13;3.77;;;;;;;-0.60;77.66;100378.17;125071;1102;103941;-79
2021/12/26 02:52:08;;;;;;;6.50;3.50;;;;;;;-0.62;77.94;100384.02;125189;1102;104089;-79
2021/12/26 02:54:40;;;;;;;8.07;3.40;;;;;;;-0.61;77.81;100384.13;125124;1105;103939;-78
2021/12/26 02:57:10;;;;;;;5.43;3.43;;;;;;;-0.60;77.31;100369.55;125003;1103;103954;-79
2021/12/26 02:59:39;;;;;;;6.45;3.15;;;;;;;-0.63;77.61;100357.32;124996;1102;104008;-79
2021/12/26 03:02:09;;;;;;;7.00;3.70;;;;;;;-0.68;77.78;100363.80;125157;1102;103993;-79
2021/12/26 03:04:39;;;;;;;6.53;3.40;;;;;;;-0.68;77.03;100375.80;125046;1103;104170;-79
2021/12/26 03:07:09;;;;;;;6.47;3.33;;;;;;;-0.65;77.71;100379.50;125052;1102;104101;-79
2021/12/26 03:09:58;;;;;;;6.77;3.30;;;;;;;-0.63;77.43;100395.09;125091;1102;105332;-79
2021/12/26 03:12:29;;;;;;;9.23;3.70;;;;;;;-0.62;77.33;100390.05;125091;1102;104193;-80
2021/12/26 03:14:59;;;;;;;9.20;3.77;;;;;;;-0.72;76.91;100397.83;125219;1102;103923;-79
2021/12/26 03:17:29;;;;;;;7.60;3.70;;;;;;;-0.77;77.08;100400.05;125025;1102;103935;-79
2021/12/26 03:19:59;;;;;;;7.87;3.83;;;;;;;-0.78;77.30;100407.65;125131;1102;103934;-79
2021/12/26 03:22:28;;;;;;;7.27;3.80;;;;;;;-0.80;77.20;100425.56;125198;1102;104040;-79
2021/12/26 03:24:58;;;;;;;7.30;3.85;;;;;;;-0.87;77.21;100423.30;125145;1102;104096;-79
2021/12/26 03:27:27;;;;;;;7.97;3.80;;;;;;;-0.87;77.58;100409.50;125198;1102;103967;-79
2021/12/26 03:29:59;;;;;;;7.17;3.60;;;;;;;-0.87;77.08;100418.15;125167;1102;103957;-79
2021/12/26 03:32:29;;;;;;;12.03;4.00;;;;;;;-0.87;76.71;100412.07;125043;1102;104148;-79
2021/12/26 03:35:00;;;;;;;9.40;3.70;;;;;;;-0.83;76.93;100429.59;125206;1102;104079;-80
2021/12/26 03:37:32;;;;;;;10.50;4.00;;;;;;;-0.81;76.80;100421.21;125278;1102;103983;-79
2021/12/26 03:40:03;;;;;;;8.25;3.75;;;;;;;-0.82;77.59;100421.09;125188;1102;103960;-79
2021/12/26 03:42:33;;;;;;;8.90;3.93;;;;;;;-0.83;77.53;100425.32;125155;1102;103992;-80
2021/12/26 03:45:07;;;;;;;6.37;3.57;;;;;;;-0.80;77.68;100437.56;125112;1105;103939;-79
2021/12/26 03:47:39;;;;;;;11.67;5.50;;;;;;;-0.81;76.83;100435.75;125013;1105;104147;-79
2021/12/26 03:50:11;;;;;;;13.40;5.20;;;;;;;-0.80;77.40;100432.41;125106;1103;104041;-79
2021/12/26 03:52:41;;;;;;;9.90;5.10;;;;;;;-0.82;77.06;100437.44;125112;1105;102579;-79
2021/12/26 03:55:12;;;;;;;7.50;4.20;;;;;;;-0.81;77.17;100436.67;125142;1105;104105;-80
2021/12/26 03:57:41;;;;;;;9.47;4.10;;;;;;;-0.81;77.59;100435.75;125008;1105;104097;-79
2021/12/26 04:00:14;;;;;;;8.53;4.10;;;;;;;-0.85;77.56;100441.45;124779;1105;103964;-80
2021/12/26 04:02:44;;;;;;;5.47;3.50;;;;;;;-0.95;77.26;100430.41;125093;1105;104083;-79
2021/12/26 04:05:15;;;;;;;7.80;4.00;;;;;;;-0.97;77.14;100436.20;125088;1105;104048;-80
2021/12/26 04:07:46;;;;;;;7.77;3.67;;;;;;;-1.01;77.01;100431.57;124998;1105;104036;-79
2021/12/26 04:10:17;;;;;;;10.17;4.17;;;;;;;-1.04;77.27;100441.63;124971;1105;104076;-79
2021/12/26 04:12:48;;;;;;;14.13;5.60;;;;;;;-1.05;77.90;100445.00;124757;1105;103954;-80
2021/12/26 04:15:21;;;;;;;14.10;5.63;;;;;;;-1.10;77.61;100453.24;125021;1105;103955;-79
2021/12/26 04:17:54;;;;;;;10.10;4.60;;;;;;;-1.12;77.99;100452.23;125222;1105;104024;-79
2021/12/26 04:20:25;;;;;;;9.53;4.73;;;;;;;-1.17;77.90;100448.39;124939;1105;104002;-80
2021/12/26 04:22:56;;;;;;;10.07;4.70;;;;;;;-1.16;77.35;100447.59;124730;1105;104044;-80
2021/12/26 04:25:28;;;;;;;11.40;4.70;;;;;;;-1.10;77.05;100453.24;124920;1105;103935;-80
2021/12/26 04:27:59;;;;;;;10.30;4.30;;;;;;;-1.06;77.33;100456.06;125145;1105;104094;-80
2021/12/26 04:30:29;;;;;;;8.77;4.37;;;;;;;-1.04;77.75;100457.08;124985;1102;103942;-76
2021/12/26 04:33:00;;;;;;;7.90;4.47;;;;;;;-1.05;77.12;100458.77;124983;1102;104034;-78
2021/12/26 04:35:31;;;;;;;8.83;4.73;;;;;;;-1.10;77.62;100466.12;125173;1102;103935;-78
2021/12/26 04:38:01;;;;;;;8.20;3.83;;;;;;;-1.16;77.15;100464.73;125039;1102;103957;-78
2021/12/26 04:40:35;;;;;;;19.87;10.13;;;;;;;-1.22;77.73;100461.66;124982;1102;103932;-78
2021/12/26 04:43:26;;;;;;;19.20;9.77;;;;;;;-1.27;78.26;100476.72;125129;1102;103957;-78
2021/12/26 04:46:17;;;;;;;15.40;6.43;;;;;;;-1.25;77.67;100480.31;125027;1102;103926;-78
2021/12/26 04:48:55;;;;;;;9.27;4.60;;;;;;;-1.24;78.41;100491.53;124895;1102;103919;-78
2021/12/26 04:51:26;;;;;;;6.77;3.40;;;;;;;-1.27;77.83;100484.45;124994;1102;103973;-78
2021/12/26 04:53:58;;;;;;;5.67;3.20;;;;;;;-1.26;78.04;100491.41;125057;1102;104123;-78
2021/12/26 04:56:28;;;;;;;8.53;3.50;;;;;;;-1.27;77.44;100487.91;125027;1102;103989;-79
2021/12/26 04:58:58;;;;;;;8.43;3.27;;;;;;;-1.31;78.25;100488.45;125040;1102;102534;-78
2021/12/26 05:01:28;;;;;;;6.33;3.37;;;;;;;-1.34;77.71;100490.77;124867;1102;103992;-78
2021/12/26 05:03:58;;;;;;;9.30;3.50;;;;;;;-1.36;77.34;100492.30;125108;1102;103926;-78
2021/12/26 05:06:29;;;;;;;7.00;3.23;;;;;;;-1.36;77.49;100492.30;125162;1101;104059;-77
2021/12/26 05:08:59;;;;;;;7.43;3.17;;;;;;;-1.35;78.21;100493.22;125057;1102;103951;-78
2021/12/26 05:11:29;;;;;;;8.30;3.57;;;;;;;-1.36;78.48;100507.74;125163;1102;103931;-77
2021/12/26 05:14:03;;;;;;;5.63;3.70;;;;;;;-1.38;77.67;100510.98;125148;1102;103945;-77
2021/12/26 05:16:33;;;;;;;8.70;4.40;;;;;;;-1.42;77.51;100516.64;125179;1102;103939;-78
2021/12/26 05:19:07;;;;;;;9.07;4.10;;;;;;;-1.44;77.99;100519.09;125131;1102;104005;-78
2021/12/26 05:21:36;;;;;;;10.53;4.50;;;;;;;-1.45;78.01;100528.49;125099;1102;104067;-78
2021/12/26 05:24:07;;;;;;;9.87;4.30;;;;;;;-1.47;78.18;100530.02;124933;1102;103919;-79
2021/12/26 05:26:37;;;;;;;7.67;3.70;;;;;;;-1.47;77.37;100522.30;125064;1102;103938;-79
2021/12/26 05:29:07;;;;;;;8.00;3.63;;;;;;;-1.50;78.34;100531.44;125099;1102;103951;-78
2021/12/26 05:31:37;;;;;;;6.33;3.70;;;;;;;-1.55;78.40;100528.48;125060;1102;103922;-78
2021/12/26 05:34:07;;;;;;;7.87;3.60;;;;;;;-1.54;77.58;100537.09;124856;1102;103951;-78
2021/12/26 05:36:37;;;;;;;8.07;3.80;;;;;;;-1.58;78.04;100537.63;124907;1102;103932;-78
2021/12/26 05:39:07;;;;;;;7.70;3.80;;;;;;;-1.61;78.42;100538.25;124862;1102;104149;-78
2021/12/26 05:41:38;;;;;;;7.67;4.03;;;;;;;-1.62;78.26;100544.20;124979;1102;104883;-78
2021/12/26 05:44:31;;;;;;;7.60;3.93;;;;;;;-1.64;77.61;100532.84;124982;1102;104075;-79
2021/12/26 05:47:03;;;;;;;8.43;4.03;;;;;;;-1.61;77.97;100534.80;125080;1102;103947;-79
2021/12/26 05:49:44;;;;;;;8.47;4.10;;;;;;;-1.60;78.10;100537.50;124911;1101;103985;-79
2021/12/26 05:52:18;;;;;;;10.57;5.03;;;;;;;-1.62;78.31;100536.48;125029;1102;104067;-80
2021/12/26 05:55:00;;;;;;;10.13;4.78;;;;;;;-1.63;78.78;100537.23;125054;1102;103995;-80
2021/12/26 05:57:30;;;;;;;10.53;4.73;;;;;;;-1.63;78.67;100540.70;125038;1102;103958;-80
2021/12/26 06:00:00;;;;;;;11.70;5.03;;;;;;;-1.65;78.89;100538.78;125113;1102;103942;-79
2021/12/26 06:02:32;;;;;;;11.37;4.60;;;;;;;-1.67;79.12;100542.88;125088;1102;103934;-79
2021/12/26 06:05:02;;;;;;;11.57;4.70;;;;;;;-1.70;78.27;100543.55;125074;1102;103957;-79
2021/12/26 06:07:32;;;;;;;13.67;5.33;;;;;;;-1.71;78.53;100553.70;125209;1102;104060;-79
2021/12/26 06:10:05;;;;;;;11.73;4.57;;;;;;;-1.72;77.97;100559.61;125208;1102;104066;-80
2021/12/26 06:12:36;;;;;;;8.55;4.50;;;;;;;-1.71;78.01;100561.42;125175;1102;103903;-79
2021/12/26 06:15:08;;;;;;;12.27;5.00;;;;;;;-1.70;78.27;100558.06;125199;1102;103942;-79
2021/12/26 06:17:40;;;;;;;14.28;5.40;;;;;;;-1.70;78.85;100561.55;125144;1101;104146;-79
2021/12/26 06:20:31;;;;;;;12.27;5.40;;;;;;;-1.70;78.78;100561.55;125191;1102;103947;-79
2021/12/26 06:23:30;;;;;;;11.20;4.77;;;;;;;-1.67;78.82;100566.97;124987;1105;104605;-79
2021/12/26 06:26:33;;;;;;;10.30;5.03;;;;;;;-1.69;78.50;100573.63;125027;1102;103967;-79
2021/12/26 06:29:11;;;;;;;20.53;7.47;;;;;;;-1.67;78.97;100577.25;125227;1102;103958;-79
2021/12/26 06:31:44;;;;;;;17.92;6.00;;;;;;;-1.61;79.19;100576.85;124972;1102;103928;-78
2021/12/26 06:34:33;;;;;;;10.87;5.20;;;;;;;-1.58;79.02;100579.69;125061;1102;103984;-79
2021/12/26 06:37:39;;;;;;;11.17;5.17;;;;;;;-1.54;79.01;100574.05;124927;1105;104278;-79
2021/12/26 06:40:29;;;;;;;23.30;7.80;;;;;;;-1.52;79.28;100577.64;124909;1102;104137;-79
2021/12/26 06:43:20;;;;;;;25.50;7.90;;;;;;;-1.47;78.56;100581.49;125152;1102;103049;-78
2021/12/26 06:46:19;;;;;;;21.03;7.73;;;;;;;-1.41;78.93;100578.55;125088;1102;103926;-78
2021/12/26 06:49:18;;;;;;;23.33;8.43;;;;;;;-1.32;78.82;100586.16;125130;1102;104468;-79
2021/12/26 06:51:50;;;;;;;20.17;6.92;;;;;;;-1.24;78.72;100595.42;125067;1102;104142;-80
2021/12/26 06:54:21;;;;;;;19.57;7.43;;;;;;;-1.24;79.02;100594.53;124873;1102;104123;-80
2021/12/26 06:56:51;;;;;;;19.50;7.73;;;;;;;-1.24;79.00;100589.37;124943;1102;104195;-79
2021/12/26 06:59:22;;;;;;;15.67;6.80;;;;;;;-1.21;78.21;100603.40;125071;1102;103981;-79
2021/12/26 07:01:52;;;;;;;17.90;6.70;;;;;;;-1.20;78.35;100604.29;124942;1102;104118;-79
2021/12/26 07:04:23;;;;;;;14.13;6.30;;;;;;;-1.20;78.14;100610.36;125071;1102;104061;-79
2021/12/26 07:06:52;;;;;;;16.57;6.27;;;;;;;-1.24;78.46;100621.16;124994;1102;103941;-78
2021/12/26 07:09:26;;;;;;;;;;;;;;;-1.25;78.11;100616.78;125220;1102;103980;-78
2021/12/26 07:11:56;;;;;;;16.07;6.07;;;;;;;-1.23;78.74;100620.41;125158;1101;103926;-79
2021/12/26 07:14:36;;;;;;;15.53;5.97;;;;;;;-1.18;77.93;100613.95;125263;1102;103970;-79
2021/12/26 07:17:07;;;;;;;12.87;5.67;;;;;;;-1.13;78.48;100617.81;125195;1102;104414;-80
2021/12/26 07:19:37;;;;;;;12.47;5.47;;;;;;;-1.11;77.93;100613.71;125266;1102;103935;-79
2021/12/26 07:22:18;;;;;;;14.13;5.83;;;;;;;-1.10;78.34;100612.91;125268;1102;104064;-79
2021/12/26 07:24:48;;;;;;;14.63;5.58;;;;;;;-1.07;77.56;100612.28;125145;1102;103982;-79
2021/12/26 07:27:19;;;;;;;16.60;5.93;;;;;;;-1.01;78.31;100614.45;125129;1102;103925;-79
2021/12/26 07:30:28;;;;;;;13.87;5.90;;;;;;;-0.99;78.59;100608.66;125119;1102;104124;-78
2021/12/26 07:32:58;;;;;;;15.17;5.57;;;;;;;-0.92;77.78;100613.56;124968;1102;104044;-78
2021/12/26 07:35:32;;;;;;;15.83;6.00;;;;;;;-0.92;77.89;100622.95;124938;1102;104025;-78
2021/12/26 07:38:25;;;;;;;16.17;6.20;;;;;;;-0.88;77.24;100632.74;124941;1102;103987;-78
2021/12/26 07:40:55;;;;;;;17.60;6.57;;;;;;;-0.87;77.85;100633.63;124970;1105;104201;-78
2021/12/26 07:43:32;;;;;;;15.83;6.20;;;;;;;-0.82;77.52;100637.52;124929;1105;104089;-78
2021/12/26 07:46:21;;;;;;;15.50;6.47;;;;;;;-0.74;77.11;100628.73;124886;1105;107031;-78
2021/12/26 07:48:55;;;;;;;18.97;7.23;;;;;;;-0.75;77.77;100635.58;125057;1105;104131;-79
2021/12/26 07:51:45;;;;;;;16.07;6.73;;;;;;;-0.82;77.40;100653.87;124989;1105;104144;-78
2021/12/26 07:54:33;;;;;;;13.03;5.87;;;;;;;-0.83;77.41;100652.05;124934;1105;104064;-78
2021/12/26 07:57:23;;;;;;;17.73;5.87;;;;;;;-0.88;77.47;100658.51;124959;1106;103964;-79
2021/12/26 08:00:15;;;;;;;19.83;7.03;;;;;;;-0.93;76.95;100659.80;125026;1105;103980;-79
2021/12/26 08:02:59;;;;;;;15.10;6.13;;;;;;;-0.95;77.22;100658.75;124979;1105;103989;-79
2021/12/26 08:05:55;;;;;;;17.03;6.73;;;;;;;-0.97;76.82;100674.08;124972;1105;104082;-78
2021/12/26 08:08:49;;;;;;;17.77;5.93;;;;;;;-0.95;77.20;100677.71;124973;1105;104091;-79
2021/12/26 08:11:19;;;;;;;13.80;5.53;;;;;;;-0.93;76.87;100675.27;124940;1105;103992;-78
2021/12/26 08:13:49;;;;;;;13.07;5.53;;;;;;;-0.85;77.15;100670.75;125063;1102;103936;-79
2021/12/26 08:16:19;;;;;;;12.17;5.50;;;;;;;-0.79;77.81;100668.69;124932;1102;103990;-78
2021/12/26 08:18:49;;;;;;;16.20;6.33;;;;;;;-0.76;77.84;100668.95;125101;1102;103933;-79
2021/12/26 08:21:21;;;;;;;12.87;5.33;;;;;;;-0.75;76.87;100671.66;125006;1102;103925;-79
2021/12/26 08:23:50;;;;;;;15.40;5.90;;;;;;;-0.77;77.27;100668.02;125269;1101;103929;-78
2021/12/26 08:26:23;;;;;;;11.67;5.17;;;;;;;-0.76;77.58;100671.52;125097;1102;104152;-78
2021/12/26 08:28:53;;;;;;;15.73;5.97;;;;;;;-0.75;77.14;100676.80;125139;1102;103932;-78
2021/12/26 08:31:24;;;;;;;15.23;6.10;;;;;;;-0.69;76.72;100678.08;125257;1101;103957;-78
2021/12/26 08:33:53;;;;;;;17.87;7.50;;;;;;;-0.63;76.92;100676.91;125022;1103;104063;-78
2021/12/26 08:36:24;;;;;;;16.23;6.90;;;;;;;-0.56;76.88;100671.50;125207;1102;103922;-78
2021/12/26 08:38:53;;;;;;;15.43;6.43;;;;;;;-0.48;77.61;100676.36;125109;1102;103938;-78
2021/12/26 08:41:24;;;;;;;18.03;6.67;;;;;;;-0.43;77.27;100686.29;125209;1102;103942;-78
2021/12/26 08:43:54;;;;;;;14.47;6.10;;;;;;;-0.31;77.29;100677.75;125229;1102;103934;-79
2021/12/26 08:46:24;;;;;;;12.80;6.30;;;;;;;-0.29;77.32;100661.64;125164;1102;101861;-78
2021/12/26 08:48:56;;;;;;;14.67;6.63;;;;;;;-0.25;77.12;100675.67;125146;1102;103977;-78
2021/12/26 08:51:26;;;;;;;14.93;6.30;;;;;;;-0.28;76.62;100675.42;125211;1102;104082;-78
2021/12/26 08:53:56;;;;;;;13.27;6.20;;;;;;;-0.34;76.76;100667.18;125284;1102;103989;-78
2021/12/26 08:56:26;;;;;;;16.40;6.57;;;;;;;-0.38;76.81;100661.77;125123;1102;104445;-78
2021/12/26 08:58:55;;;;;;;16.17;6.60;;;;;;;-0.40;77.35;100660.76;125266;1101;104111;-78
2021/12/26 09:01:25;;;;;;;14.33;6.47;;;;;;;-0.28;76.95;100649.63;125150;1101;103993;-78
2021/12/26 09:03:55;;;;;;;15.17;6.27;;;;;;;-0.23;77.21;100648.34;125119;1102;103964;-78
2021/12/26 09:06:25;;;;;;;16.53;6.40;;;;;;;-0.20;76.57;100641.75;125089;1102;104621;-78
2021/12/26 09:08:58;;;;;;;16.27;6.50;;;;;;;-0.21;75.79;100651.94;125291;1101;104051;-78
2021/12/26 09:11:28;;;;;;;11.50;5.90;;;;;;;-0.22;76.79;100647.55;125167;1101;103941;-78
2021/12/26 09:13:58;;;;;;;13.40;5.57;;;;;;;-0.19;76.44;100652.95;125196;1102;104111;-78
2021/12/26 09:16:33;;;;;;;13.00;5.77;;;;;;;-0.25;76.51;100650.80;125122;1102;104066;-78
2021/12/26 09:19:06;;;;;;;13.90;6.17;;;;;;;-0.25;76.38;100648.22;125149;1102;103964;-78
2021/12/26 09:21:36;;;;;;;14.23;6.10;;;;;;;-0.24;76.77;100654.27;125177;1102;103925;-78
2021/12/26 09:24:07;;;;;;;16.07;6.30;;;;;;;-0.17;76.58;100656.59;125170;1102;103926;-78
2021/12/26 09:26:37;;;;;;;12.67;5.60;;;;;;;-0.06;77.32;100654.88;125142;1102;103950;-78
2021/12/26 09:29:35;;;;;;;15.57;6.23;;;;;;;0.03;76.85;100653.00;125180;1102;104060;-79
2021/12/26 09:32:07;;;;;;;16.13;6.57;;;;;;;-0.03;76.73;100648.27;125193;1102;103961;-78
2021/12/26 09:34:38;;;;;;;17.10;6.73;;;;;;;-0.06;76.58;100648.02;125246;1102;104111;-79
2021/12/26 09:37:09;;;;;;;16.33;6.93;;;;;;;-0.09;76.97;100652.05;125077;1102;103948;-78
2021/12/26 09:39:41;;;;;;;19.27;7.57;;;;;;;-0.11;76.50;100645.84;125178;1102;103960;-78
2021/12/26 09:42:11;;;;;;;19.20;7.57;;;;;;;-0.08;77.12;100647.01;125161;1102;104091;-78
2021/12/26 09:44:41;;;;;;;17.80;6.77;;;;;;;-0.09;77.13;100652.94;124990;1102;103827;-79
2021/12/26 09:47:11;;;;;;;26.37;9.03;;;;;;;-0.13;76.48;100643.14;124994;1102;104088;-78
2021/12/26 09:49:41;;;;;;;17.63;6.50;;;;;;;-0.08;77.02;100641.84;125242;1102;103980;-78
2021/12/26 09:55:09;;;;;;;14.00;5.70;;;;;;;-0.12;76.08;100642.37;124699;1105;104197;-78
2021/12/26 09:57:37;;;;;;;;;;;;;;;-0.14;76.21;100638.78;124940;1105;103964;-78
2021/12/26 10:00:21;;;;;;;13.50;5.53;;;;;;;-0.20;76.34;100641.75;124977;1105;103929;-78
2021/12/26 10:03:08;;;;;;;15.33;6.03;;;;;;;-0.27;75.67;100634.28;125119;1105;105468;-79
2021/12/26 10:06:04;;;;;;;16.57;6.47;;;;;;;-0.34;76.06;100639.74;125003;1105;104085;-79
2021/12/26 10:08:49;;;;;;;16.43;6.73;;;;;;;-0.27;75.75;100633.39;124912;1106;104175;-78
2021/12/26 10:11:20;;;;;;;14.60;6.13;;;;;;;-0.14;75.97;100632.69;124937;1105;103929;-78
2021/12/26 10:13:53;;;;;;;15.70;6.40;;;;;;;0.07;76.83;100638.69;124969;1102;104050;-79
2021/12/26 10:16:25;;;;;;;14.47;6.50;;;;;;;0.17;77.15;100638.62;125187;1100;103981;-79
2021/12/26 10:18:57;;;;;;;16.67;6.10;;;;;;;0.32;76.63;100637.25;125086;1102;103923;-78
2021/12/26 10:21:36;;;;;;;15.63;5.97;;;;;;;0.41;75.98;100639.66;124982;1102;104117;-78
2021/12/26 10:24:11;;;;;;;14.53;5.63;;;;;;;0.44;76.14;100641.59;125218;1102;103957;-78
2021/12/26 10:26:44;;;;;;;13.53;5.97;;;;;;;0.51;76.20;100641.27;125146;1102;103977;-79
2021/12/26 10:29:24;;;;;;;12.07;5.60;;;;;;;0.59;76.24;100640.17;125150;1102;104017;-78
2021/12/26 10:32:00;;;;;;;18.90;6.87;;;;;;;0.67;76.10;100639.11;125225;1102;103388;-79
2021/12/26 10:34:34;;;;;;;13.80;6.13;;;;;;;0.68;75.70;100642.58;125150;1102;104693;-78
2021/12/26 10:37:09;;;;;;;14.60;6.00;;;;;;;0.60;75.59;100641.98;125131;1102;104022;-79
2021/12/26 10:39:43;;;;;;;14.60;6.00;;;;;;;0.53;75.90;100643.20;125172;1103;111506;-78
2021/12/26 10:42:17;;;;;;;15.53;5.93;;;;;;;0.49;75.52;100640.27;124979;1103;103928;-79
2021/12/26 10:44:48;;;;;;;14.13;6.20;;;;;;;0.46;75.82;100633.16;125163;1102;103936;-78
2021/12/26 10:47:26;;;;;;;13.83;5.83;;;;;;;0.41;75.74;100631.91;125061;1102;104496;-78
2021/12/26 10:50:11;;;;;;;12.83;5.60;;;;;;;0.33;75.50;100633.89;125084;1102;103944;-78
2021/12/26 10:52:50;;;;;;;14.50;5.43;;;;;;;0.26;75.54;100633.29;125140;1102;103990;-78
2021/12/26 10:55:27;;;;;;;14.87;6.63;;;;;;;0.21;75.64;100627.77;125149;1102;103974;-78
2021/12/26 10:57:57;;;;;;;14.60;5.50;;;;;;;0.19;76.05;100629.34;125130;1102;103938;-79
2021/12/26 11:00:29;;;;;;;12.17;5.37;;;;;;;0.09;75.87;100632.84;125208;1102;107143;-78
2021/12/26 11:03:04;;;;;;;12.80;5.90;;;;;;;-0.02;75.42;100618.20;125006;1102;103938;-78
2021/12/26 11:05:38;;;;;;;20.70;7.40;;;;;;;-0.07;76.27;100615.25;124988;1105;103941;-78
2021/12/26 11:08:11;;;;;;;16.47;8.10;;;;;;;-0.06;76.20;100622.22;124967;1105;103967;-78
2021/12/26 11:10:44;;;;;;;15.33;7.57;;;;;;;-0.03;76.62;100622.47;124951;1105;118878;-78
2021/12/26 11:13:20;;;;;;;18.67;7.10;;;;;;;-0.02;76.20;100619.13;124943;1105;104112;-78
2021/12/26 11:15:54;;;;;;;14.47;6.87;;;;;;;-0.03;76.16;100619.00;124977;1105;103935;-78
2021/12/26 11:18:25;;;;;;;13.97;6.60;;;;;;;-0.07;76.50;100620.41;124933;1105;103932;-78
2021/12/26 11:20:58;;;;;;;13.97;6.23;;;;;;;-0.06;76.84;100629.97;124985;1105;103945;-78
2021/12/26 11:23:30;;;;;;;13.00;5.83;;;;;;;-0.10;76.70;100625.33;124984;1105;103989;-78
2021/12/26 11:26:03;;;;;;;19.03;6.20;;;;;;;-0.12;76.34;100619.16;125002;1105;103948;-78
2021/12/26 11:28:36;;;;;;;16.27;6.27;;;;;;;-0.13;77.03;100619.03;124971;1105;104089;-79
2021/12/26 11:31:11;;;;;;;18.70;6.80;;;;;;;-0.09;75.97;100621.09;124988;1105;103955;-78
2021/12/26 11:33:41;;;;;;;13.80;5.90;;;;;;;-0.14;76.55;100628.45;124974;1105;104108;-78
2021/12/26 11:36:12;;;;;;;13.00;5.43;;;;;;;-0.15;76.44;100621.48;125021;1105;103932;-78
2021/12/26 11:38:42;;;;;;;13.70;5.47;;;;;;;-0.20;76.75;100621.11;124956;1102;104085;-79
2021/12/26 11:41:42;;;;;;;14.80;6.03;;;;;;;-0.25;76.12;100626.67;125116;1102;103938;-78
2021/12/26 11:44:51;;;;;;;15.43;6.30;;;;;;;-0.27;76.59;100628.23;125171;1102;103941;-78